sensor_id;sensor_type;location;lat;lon;timestamp;temperature;humidity
51500;DHT22;39101;53.478;6.158;2022-11-09T00:01:17;11.80;99.90
51500;DHT22;39101;53.478;6.158;2022-11-09T00:03:43;11.90;99.90
51500;DHT22;39101;53.478;6.158;2022-11-09T00:06:08;11.80;99.90
51500;DHT22;39101;53.478;6.158;2022-11-09T00:08:36;11.90;99.90
51500;DHT22;39101;53.478;6.158;2022-11-09T00:11:07;11.90;99.90
51500;DHT22;39101;53.478;6.158;2022-11-09T00:13:41;11.90;99.90
51500;DHT22;39101;53.478;6.158;2022-11-09T00:16:09;11.90;99.90
51500;DHT22;39101;53.478;6.158;2022-11-09T00:18:36;11.90;99.90
51500;DHT22;39101;53.478;6.158;2022-11-09T00:21:11;11.90;99.90
51500;DHT22;39101;53.478;6.158;2022-11-09T00:23:37;12.00;99.90
51500;DHT22;39101;53.478;6.158;2022-11-09T00:26:04;12.00;99.90
51500;DHT22;39101;53.478;6.158;2022-11-09T00:28:30;12.00;99.90
51500;DHT22;39101;53.478;6.158;2022-11-09T00:31:03;11.90;99.90
51500;DHT22;39101;53.478;6.158;2022-11-09T00:33:30;11.90;99.90
51500;DHT22;39101;53.478;6.158;2022-11-09T00:35:55;11.90;99.90
51500;DHT22;39101;53.478;6.158;2022-11-09T00:38:21;11.90;99.90
51500;DHT22;39101;53.478;6.158;2022-11-09T00:40:47;11.90;99.90
51500;DHT22;39101;53.478;6.158;2022-11-09T00:43:13;11.90;99.90
51500;DHT22;39101;53.478;6.158;2022-11-09T00:45:39;11.80;99.90
51500;DHT22;39101;53.478;6.158;2022-11-09T00:48:06;11.90;99.90
51500;DHT22;39101;53.478;6.158;2022-11-09T00:50:32;11.80;99.90
51500;DHT22;39101;53.478;6.158;2022-11-09T00:52:58;11.80;99.90
51500;DHT22;39101;53.478;6.158;2022-11-09T00:55:23;11.80;99.90
51500;DHT22;39101;53.478;6.158;2022-11-09T00:57:50;11.70;99.90
51500;DHT22;39101;53.478;6.158;2022-11-09T01:00:20;11.70;99.90
51500;DHT22;39101;53.478;6.158;2022-11-09T01:02:49;11.70;99.90
51500;DHT22;39101;53.478;6.158;2022-11-09T01:05:14;11.70;99.90
51500;DHT22;39101;53.478;6.158;2022-11-09T01:07:40;11.70;99.90
51500;DHT22;39101;53.478;6.158;2022-11-09T01:10:06;11.70;99.90
51500;DHT22;39101;53.478;6.158;2022-11-09T01:12:32;11.70;99.90
51500;DHT22;39101;53.478;6.158;2022-11-09T01:14:58;11.60;99.90
51500;DHT22;39101;53.478;6.158;2022-11-09T01:17:24;11.60;99.90
51500;DHT22;39101;53.478;6.158;2022-11-09T01:19:50;11.50;99.90
51500;DHT22;39101;53.478;6.158;2022-11-09T01:22:16;11.50;99.90
51500;DHT22;39101;53.478;6.158;2022-11-09T01:24:43;11.40;99.90
51500;DHT22;39101;53.478;6.158;2022-11-09T01:27:09;11.40;99.90
51500;DHT22;39101;53.478;6.158;2022-11-09T01:29:35;11.30;99.90
51500;DHT22;39101;53.478;6.158;2022-11-09T01:32:02;11.30;99.90
51500;DHT22;39101;53.478;6.158;2022-11-09T01:34:28;11.30;99.90
51500;DHT22;39101;53.478;6.158;2022-11-09T01:36:53;11.30;99.90
51500;DHT22;39101;53.478;6.158;2022-11-09T01:39:19;11.30;99.90
51500;DHT22;39101;53.478;6.158;2022-11-09T01:41:46;11.30;99.90
51500;DHT22;39101;53.478;6.158;2022-11-09T01:52:05;11.30;99.90
51500;DHT22;39101;53.478;6.158;2022-11-09T01:54:37;11.40;99.90
51500;DHT22;39101;53.478;6.158;2022-11-09T01:57:12;11.40;99.90
51500;DHT22;39101;53.478;6.158;2022-11-09T01:59:43;11.50;99.90
51500;DHT22;39101;53.478;6.158;2022-11-09T02:02:12;11.50;99.90
51500;DHT22;39101;53.478;6.158;2022-11-09T02:04:44;11.50;99.90
51500;DHT22;39101;53.478;6.158;2022-11-09T02:07:11;11.50;99.90
51500;DHT22;39101;53.478;6.158;2022-11-09T02:12:51;11.70;99.90
51500;DHT22;39101;53.478;6.158;2022-11-09T02:15:17;11.70;99.90
51500;DHT22;39101;53.478;6.158;2022-11-09T02:17:44;11.70;99.90
51500;DHT22;39101;53.478;6.158;2022-11-09T02:20:13;11.70;99.90
51500;DHT22;39101;53.478;6.158;2022-11-09T02:22:40;11.80;99.90
51500;DHT22;39101;53.478;6.158;2022-11-09T02:25:07;11.80;99.90
51500;DHT22;39101;53.478;6.158;2022-11-09T02:27:34;11.80;99.90
51500;DHT22;39101;53.478;6.158;2022-11-09T02:30:00;11.80;99.90
51500;DHT22;39101;53.478;6.158;2022-11-09T02:32:28;11.80;99.90
51500;DHT22;39101;53.478;6.158;2022-11-09T02:34:54;11.80;99.90
51500;DHT22;39101;53.478;6.158;2022-11-09T02:37:41;11.70;99.90
51500;DHT22;39101;53.478;6.158;2022-11-09T02:40:14;11.80;99.90
51500;DHT22;39101;53.478;6.158;2022-11-09T02:42:41;11.70;99.90
51500;DHT22;39101;53.478;6.158;2022-11-09T02:45:07;11.70;99.90
51500;DHT22;39101;53.478;6.158;2022-11-09T02:47:33;11.60;99.90
51500;DHT22;39101;53.478;6.158;2022-11-09T02:49:58;11.60;99.90
51500;DHT22;39101;53.478;6.158;2022-11-09T02:52:24;11.60;99.90
51500;DHT22;39101;53.478;6.158;2022-11-09T02:54:50;11.50;99.90
51500;DHT22;39101;53.478;6.158;2022-11-09T02:57:16;11.50;99.90
51500;DHT22;39101;53.478;6.158;2022-11-09T02:59:41;11.50;99.90
51500;DHT22;39101;53.478;6.158;2022-11-09T03:02:07;11.50;99.90
51500;DHT22;39101;53.478;6.158;2022-11-09T03:04:33;11.50;99.90
51500;DHT22;39101;53.478;6.158;2022-11-09T03:06:58;11.50;99.90
51500;DHT22;39101;53.478;6.158;2022-11-09T03:09:24;11.60;99.90
51500;DHT22;39101;53.478;6.158;2022-11-09T03:11:49;11.60;99.90
51500;DHT22;39101;53.478;6.158;2022-11-09T03:14:16;11.60;99.90
51500;DHT22;39101;53.478;6.158;2022-11-09T03:16:41;11.60;99.90
51500;DHT22;39101;53.478;6.158;2022-11-09T03:19:07;11.70;99.90
51500;DHT22;39101;53.478;6.158;2022-11-09T03:21:33;11.80;99.90
51500;DHT22;39101;53.478;6.158;2022-11-09T03:23:59;11.70;99.90
51500;DHT22;39101;53.478;6.158;2022-11-09T03:26:25;11.70;99.90
51500;DHT22;39101;53.478;6.158;2022-11-09T03:28:50;11.70;99.90
51500;DHT22;39101;53.478;6.158;2022-11-09T03:31:16;11.70;99.90
51500;DHT22;39101;53.478;6.158;2022-11-09T03:33:42;11.70;99.90
51500;DHT22;39101;53.478;6.158;2022-11-09T03:36:08;11.70;99.90
51500;DHT22;39101;53.478;6.158;2022-11-09T03:38:34;11.70;99.90
51500;DHT22;39101;53.478;6.158;2022-11-09T03:41:01;11.70;99.90
51500;DHT22;39101;53.478;6.158;2022-11-09T03:43:27;11.80;99.90
51500;DHT22;39101;53.478;6.158;2022-11-09T03:45:53;11.70;99.90
51500;DHT22;39101;53.478;6.158;2022-11-09T03:48:19;11.80;99.90
51500;DHT22;39101;53.478;6.158;2022-11-09T03:50:44;11.70;99.90
51500;DHT22;39101;53.478;6.158;2022-11-09T03:53:10;11.70;99.90
51500;DHT22;39101;53.478;6.158;2022-11-09T03:55:37;11.80;99.90
51500;DHT22;39101;53.478;6.158;2022-11-09T03:58:04;11.70;99.90
51500;DHT22;39101;53.478;6.158;2022-11-09T04:00:31;11.70;99.90
51500;DHT22;39101;53.478;6.158;2022-11-09T04:02:57;11.80;99.90
51500;DHT22;39101;53.478;6.158;2022-11-09T04:05:22;11.80;99.90
51500;DHT22;39101;53.478;6.158;2022-11-09T04:07:53;11.80;99.90
51500;DHT22;39101;53.478;6.158;2022-11-09T04:10:19;11.80;99.90
51500;DHT22;39101;53.478;6.158;2022-11-09T04:12:45;11.80;99.90
51500;DHT22;39101;53.478;6.158;2022-11-09T04:15:11;11.80;99.90
51500;DHT22;39101;53.478;6.158;2022-11-09T04:17:37;11.80;99.90
51500;DHT22;39101;53.478;6.158;2022-11-09T04:20:04;11.80;99.90
51500;DHT22;39101;53.478;6.158;2022-11-09T04:22:30;11.80;99.90
51500;DHT22;39101;53.478;6.158;2022-11-09T04:24:56;11.80;99.90
51500;DHT22;39101;53.478;6.158;2022-11-09T04:27:22;11.90;99.90
51500;DHT22;39101;53.478;6.158;2022-11-09T04:29:47;11.90;99.90
51500;DHT22;39101;53.478;6.158;2022-11-09T04:32:13;12.00;99.90
51500;DHT22;39101;53.478;6.158;2022-11-09T04:34:38;12.00;99.90
51500;DHT22;39101;53.478;6.158;2022-11-09T04:37:06;12.00;99.90
51500;DHT22;39101;53.478;6.158;2022-11-09T04:39:32;12.00;99.90
51500;DHT22;39101;53.478;6.158;2022-11-09T04:41:57;12.10;99.90
51500;DHT22;39101;53.478;6.158;2022-11-09T04:44:23;12.10;99.90
51500;DHT22;39101;53.478;6.158;2022-11-09T04:46:49;12.10;99.90
51500;DHT22;39101;53.478;6.158;2022-11-09T04:49:14;12.10;99.90
51500;DHT22;39101;53.478;6.158;2022-11-09T04:51:40;12.10;99.90
51500;DHT22;39101;53.478;6.158;2022-11-09T04:54:06;12.10;99.90
51500;DHT22;39101;53.478;6.158;2022-11-09T04:56:31;12.10;99.90
51500;DHT22;39101;53.478;6.158;2022-11-09T04:58:57;12.00;99.90
51500;DHT22;39101;53.478;6.158;2022-11-09T05:01:23;12.10;99.90
51500;DHT22;39101;53.478;6.158;2022-11-09T05:03:48;12.00;99.90
51500;DHT22;39101;53.478;6.158;2022-11-09T05:06:14;12.00;99.90
51500;DHT22;39101;53.478;6.158;2022-11-09T05:09:00;12.00;99.90
51500;DHT22;39101;53.478;6.158;2022-11-09T05:11:26;12.00;99.90
51500;DHT22;39101;53.478;6.158;2022-11-09T05:13:52;11.90;99.90
51500;DHT22;39101;53.478;6.158;2022-11-09T05:16:18;11.90;99.90
51500;DHT22;39101;53.478;6.158;2022-11-09T05:18:44;11.90;99.90
51500;DHT22;39101;53.478;6.158;2022-11-09T05:21:10;11.90;99.90
51500;DHT22;39101;53.478;6.158;2022-11-09T05:23:36;11.90;99.90
51500;DHT22;39101;53.478;6.158;2022-11-09T05:26:20;11.80;99.90
51500;DHT22;39101;53.478;6.158;2022-11-09T05:28:46;11.90;99.90
51500;DHT22;39101;53.478;6.158;2022-11-09T05:31:12;11.90;99.90
51500;DHT22;39101;53.478;6.158;2022-11-09T05:33:37;11.80;99.90
51500;DHT22;39101;53.478;6.158;2022-11-09T05:36:03;11.80;99.90
51500;DHT22;39101;53.478;6.158;2022-11-09T05:38:29;11.80;99.90
51500;DHT22;39101;53.478;6.158;2022-11-09T05:40:55;11.80;99.90
51500;DHT22;39101;53.478;6.158;2022-11-09T05:43:21;11.80;99.90
51500;DHT22;39101;53.478;6.158;2022-11-09T05:45:46;11.80;99.90
51500;DHT22;39101;53.478;6.158;2022-11-09T05:48:15;11.70;99.90
51500;DHT22;39101;53.478;6.158;2022-11-09T05:50:41;11.70;99.90
51500;DHT22;39101;53.478;6.158;2022-11-09T05:53:08;11.70;99.90
51500;DHT22;39101;53.478;6.158;2022-11-09T05:55:34;11.70;99.90
51500;DHT22;39101;53.478;6.158;2022-11-09T05:58:00;11.80;99.90
51500;DHT22;39101;53.478;6.158;2022-11-09T06:00:26;11.70;99.90
51500;DHT22;39101;53.478;6.158;2022-11-09T06:02:53;11.70;99.90
51500;DHT22;39101;53.478;6.158;2022-11-09T06:05:19;11.70;99.90
51500;DHT22;39101;53.478;6.158;2022-11-09T06:07:45;11.70;99.90
51500;DHT22;39101;53.478;6.158;2022-11-09T06:10:11;11.70;99.90
51500;DHT22;39101;53.478;6.158;2022-11-09T06:12:37;11.70;99.90
51500;DHT22;39101;53.478;6.158;2022-11-09T06:15:03;11.70;99.90
51500;DHT22;39101;53.478;6.158;2022-11-09T06:17:29;11.70;99.90
51500;DHT22;39101;53.478;6.158;2022-11-09T06:19:55;11.70;99.90
51500;DHT22;39101;53.478;6.158;2022-11-09T06:22:21;11.70;99.90
51500;DHT22;39101;53.478;6.158;2022-11-09T06:24:47;11.70;99.90
51500;DHT22;39101;53.478;6.158;2022-11-09T06:27:13;11.70;99.90
51500;DHT22;39101;53.478;6.158;2022-11-09T06:29:39;11.70;99.90
51500;DHT22;39101;53.478;6.158;2022-11-09T06:32:04;11.70;99.90
51500;DHT22;39101;53.478;6.158;2022-11-09T06:34:30;11.70;99.90
51500;DHT22;39101;53.478;6.158;2022-11-09T06:36:56;11.70;99.90
51500;DHT22;39101;53.478;6.158;2022-11-09T06:39:21;11.70;99.90
51500;DHT22;39101;53.478;6.158;2022-11-09T06:41:47;11.70;99.90
51500;DHT22;39101;53.478;6.158;2022-11-09T06:44:13;11.70;99.90
51500;DHT22;39101;53.478;6.158;2022-11-09T06:46:39;11.70;99.90
51500;DHT22;39101;53.478;6.158;2022-11-09T06:49:05;11.70;99.90
51500;DHT22;39101;53.478;6.158;2022-11-09T06:51:31;11.70;99.90
51500;DHT22;39101;53.478;6.158;2022-11-09T06:53:57;11.70;99.90
51500;DHT22;39101;53.478;6.158;2022-11-09T06:56:22;11.70;99.90
51500;DHT22;39101;53.478;6.158;2022-11-09T06:58:48;11.70;99.90
51500;DHT22;39101;53.478;6.158;2022-11-09T07:01:16;11.70;99.90
51500;DHT22;39101;53.478;6.158;2022-11-09T07:03:42;11.70;99.90
51500;DHT22;39101;53.478;6.158;2022-11-09T07:06:09;11.70;99.90
51500;DHT22;39101;53.478;6.158;2022-11-09T07:08:35;11.70;99.90
51500;DHT22;39101;53.478;6.158;2022-11-09T07:11:03;11.60;99.90
51500;DHT22;39101;53.478;6.158;2022-11-09T07:13:28;11.60;99.90
51500;DHT22;39101;53.478;6.158;2022-11-09T07:15:54;11.60;99.90
51500;DHT22;39101;53.478;6.158;2022-11-09T07:18:20;11.60;99.90
51500;DHT22;39101;53.478;6.158;2022-11-09T07:20:45;11.60;99.90
51500;DHT22;39101;53.478;6.158;2022-11-09T07:23:11;11.70;99.90
51500;DHT22;39101;53.478;6.158;2022-11-09T07:25:37;11.60;99.90
51500;DHT22;39101;53.478;6.158;2022-11-09T07:28:07;11.70;99.90
51500;DHT22;39101;53.478;6.158;2022-11-09T07:30:34;11.60;99.90
51500;DHT22;39101;53.478;6.158;2022-11-09T07:33:01;11.60;99.90
51500;DHT22;39101;53.478;6.158;2022-11-09T07:35:27;11.70;99.90
51500;DHT22;39101;53.478;6.158;2022-11-09T07:37:54;11.70;99.90
51500;DHT22;39101;53.478;6.158;2022-11-09T07:40:23;11.70;99.90
51500;DHT22;39101;53.478;6.158;2022-11-09T07:42:49;11.70;99.90
51500;DHT22;39101;53.478;6.158;2022-11-09T07:45:14;11.70;99.90
51500;DHT22;39101;53.478;6.158;2022-11-09T07:47:40;11.70;99.90
51500;DHT22;39101;53.478;6.158;2022-11-09T07:50:06;11.70;99.90
51500;DHT22;39101;53.478;6.158;2022-11-09T07:52:31;11.80;99.90
51500;DHT22;39101;53.478;6.158;2022-11-09T07:54:57;11.80;99.90
51500;DHT22;39101;53.478;6.158;2022-11-09T07:57:23;11.90;99.90
51500;DHT22;39101;53.478;6.158;2022-11-09T07:59:48;11.90;99.90
51500;DHT22;39101;53.478;6.158;2022-11-09T08:02:16;11.90;99.90
51500;DHT22;39101;53.478;6.158;2022-11-09T08:04:41;11.90;99.90
51500;DHT22;39101;53.478;6.158;2022-11-09T08:07:07;12.00;99.90
51500;DHT22;39101;53.478;6.158;2022-11-09T08:09:33;12.10;99.90
51500;DHT22;39101;53.478;6.158;2022-11-09T08:11:58;12.10;99.90
51500;DHT22;39101;53.478;6.158;2022-11-09T08:14:24;12.10;99.90
51500;DHT22;39101;53.478;6.158;2022-11-09T08:16:49;12.00;99.90
51500;DHT22;39101;53.478;6.158;2022-11-09T08:19:15;12.10;99.90
51500;DHT22;39101;53.478;6.158;2022-11-09T08:21:41;12.10;99.90
51500;DHT22;39101;53.478;6.158;2022-11-09T08:24:06;12.10;99.90
51500;DHT22;39101;53.478;6.158;2022-11-09T08:26:32;12.20;99.90
51500;DHT22;39101;53.478;6.158;2022-11-09T08:28:58;12.10;99.90
51500;DHT22;39101;53.478;6.158;2022-11-09T08:31:24;12.20;99.90
51500;DHT22;39101;53.478;6.158;2022-11-09T08:33:49;12.20;99.90
51500;DHT22;39101;53.478;6.158;2022-11-09T08:36:16;12.30;99.90
51500;DHT22;39101;53.478;6.158;2022-11-09T08:38:43;12.30;99.90
51500;DHT22;39101;53.478;6.158;2022-11-09T08:41:10;12.30;99.90
51500;DHT22;39101;53.478;6.158;2022-11-09T08:43:36;12.20;99.90
51500;DHT22;39101;53.478;6.158;2022-11-09T08:46:03;12.30;99.90
51500;DHT22;39101;53.478;6.158;2022-11-09T08:48:29;12.40;99.90
51500;DHT22;39101;53.478;6.158;2022-11-09T08:50:58;12.40;99.90
51500;DHT22;39101;53.478;6.158;2022-11-09T08:53:25;12.40;99.90
51500;DHT22;39101;53.478;6.158;2022-11-09T08:55:51;12.50;99.90
51500;DHT22;39101;53.478;6.158;2022-11-09T08:58:17;12.50;99.90
51500;DHT22;39101;53.478;6.158;2022-11-09T09:00:43;12.50;99.90
51500;DHT22;39101;53.478;6.158;2022-11-09T09:03:09;12.60;99.90
51500;DHT22;39101;53.478;6.158;2022-11-09T09:05:35;12.60;99.90
51500;DHT22;39101;53.478;6.158;2022-11-09T09:08:01;12.60;99.90
51500;DHT22;39101;53.478;6.158;2022-11-09T09:10:28;12.60;99.90
51500;DHT22;39101;53.478;6.158;2022-11-09T09:12:54;12.70;99.90
51500;DHT22;39101;53.478;6.158;2022-11-09T09:15:20;12.80;99.90
51500;DHT22;39101;53.478;6.158;2022-11-09T09:17:46;12.90;99.90
51500;DHT22;39101;53.478;6.158;2022-11-09T09:20:11;12.90;99.90
51500;DHT22;39101;53.478;6.158;2022-11-09T09:22:37;13.00;99.90
51500;DHT22;39101;53.478;6.158;2022-11-09T09:25:03;13.00;99.90
51500;DHT22;39101;53.478;6.158;2022-11-09T09:27:29;13.00;99.90
51500;DHT22;39101;53.478;6.158;2022-11-09T09:29:55;13.00;99.90
51500;DHT22;39101;53.478;6.158;2022-11-09T09:32:21;13.00;99.90
51500;DHT22;39101;53.478;6.158;2022-11-09T09:34:47;13.30;99.90
51500;DHT22;39101;53.478;6.158;2022-11-09T09:37:12;13.10;99.90
51500;DHT22;39101;53.478;6.158;2022-11-09T09:39:38;13.10;99.90
51500;DHT22;39101;53.478;6.158;2022-11-09T09:42:06;13.10;99.90
51500;DHT22;39101;53.478;6.158;2022-11-09T09:47:19;13.20;99.90
51500;DHT22;39101;53.478;6.158;2022-11-09T09:49:59;13.20;99.90
51500;DHT22;39101;53.478;6.158;2022-11-09T09:52:38;13.20;99.90
51500;DHT22;39101;53.478;6.158;2022-11-09T09:57:37;13.20;99.90
51500;DHT22;39101;53.478;6.158;2022-11-09T10:00:06;13.30;99.90
51500;DHT22;39101;53.478;6.158;2022-11-09T10:02:36;13.30;99.90
51500;DHT22;39101;53.478;6.158;2022-11-09T10:05:07;13.30;99.90
51500;DHT22;39101;53.478;6.158;2022-11-09T10:07:59;13.30;99.90
51500;DHT22;39101;53.478;6.158;2022-11-09T10:10:54;13.30;99.90
51500;DHT22;39101;53.478;6.158;2022-11-09T10:13:37;13.40;99.90
51500;DHT22;39101;53.478;6.158;2022-11-09T10:16:25;13.40;99.90
51500;DHT22;39101;53.478;6.158;2022-11-09T10:26:49;13.40;99.90
51500;DHT22;39101;53.478;6.158;2022-11-09T10:29:40;13.40;99.90
51500;DHT22;39101;53.478;6.158;2022-11-09T10:32:15;13.40;99.90
51500;DHT22;39101;53.478;6.158;2022-11-09T10:37:23;13.50;99.90
51500;DHT22;39101;53.478;6.158;2022-11-09T10:39:57;13.50;99.90
51500;DHT22;39101;53.478;6.158;2022-11-09T10:42:24;13.50;99.90
51500;DHT22;39101;53.478;6.158;2022-11-09T10:44:49;13.40;99.90
51500;DHT22;39101;53.478;6.158;2022-11-09T10:47:16;13.40;99.90
51500;DHT22;39101;53.478;6.158;2022-11-09T10:49:42;13.40;99.90
51500;DHT22;39101;53.478;6.158;2022-11-09T10:57:59;13.30;99.90
51500;DHT22;39101;53.478;6.158;2022-11-09T11:00:26;13.40;99.90
51500;DHT22;39101;53.478;6.158;2022-11-09T11:02:52;13.30;99.90
51500;DHT22;39101;53.478;6.158;2022-11-09T11:05:22;13.40;99.90
51500;DHT22;39101;53.478;6.158;2022-11-09T11:07:48;13.30;99.90
51500;DHT22;39101;53.478;6.158;2022-11-09T11:12:40;13.30;99.90
51500;DHT22;39101;53.478;6.158;2022-11-09T11:17:49;13.40;99.90
51500;DHT22;39101;53.478;6.158;2022-11-09T11:20:35;13.40;99.90
51500;DHT22;39101;53.478;6.158;2022-11-09T11:28:34;13.40;99.90
51500;DHT22;39101;53.478;6.158;2022-11-09T11:31:03;13.40;99.90
51500;DHT22;39101;53.478;6.158;2022-11-09T11:33:29;13.30;99.90
51500;DHT22;39101;53.478;6.158;2022-11-09T11:39:20;13.20;99.90
51500;DHT22;39101;53.478;6.158;2022-11-09T11:49:57;13.10;99.90
51500;DHT22;39101;53.478;6.158;2022-11-09T11:52:57;13.20;99.90
51500;DHT22;39101;53.478;6.158;2022-11-09T12:01:06;13.10;99.90
51500;DHT22;39101;53.478;6.158;2022-11-09T12:09:47;13.00;99.90
51500;DHT22;39101;53.478;6.158;2022-11-09T12:15:30;13.00;99.90
51500;DHT22;39101;53.478;6.158;2022-11-09T12:20:50;12.90;99.90
51500;DHT22;39101;53.478;6.158;2022-11-09T12:26:37;12.70;99.90
51500;DHT22;39101;53.478;6.158;2022-11-09T12:29:13;12.60;99.90
51500;DHT22;39101;53.478;6.158;2022-11-09T12:39:34;12.40;99.90
51500;DHT22;39101;53.478;6.158;2022-11-09T12:42:16;12.30;99.90
51500;DHT22;39101;53.478;6.158;2022-11-09T12:47:20;12.20;99.90
51500;DHT22;39101;53.478;6.158;2022-11-09T12:49:47;12.20;99.90
51500;DHT22;39101;53.478;6.158;2022-11-09T12:52:16;12.20;99.90
51500;DHT22;39101;53.478;6.158;2022-11-09T12:54:46;12.20;99.90
51500;DHT22;39101;53.478;6.158;2022-11-09T12:57:19;12.10;99.90
51500;DHT22;39101;53.478;6.158;2022-11-09T12:59:48;12.10;99.90
51500;DHT22;39101;53.478;6.158;2022-11-09T13:02:35;12.10;99.90
51500;DHT22;39101;53.478;6.158;2022-11-09T13:05:04;12.00;99.90
51500;DHT22;39101;53.478;6.158;2022-11-09T13:07:43;12.00;99.90
51500;DHT22;39101;53.478;6.158;2022-11-09T13:10:36;12.00;99.90
51500;DHT22;39101;53.478;6.158;2022-11-09T13:15:38;11.80;99.90
51500;DHT22;39101;53.478;6.158;2022-11-09T13:18:24;11.80;99.90
51500;DHT22;39101;53.478;6.158;2022-11-09T13:20:51;11.80;99.90
51500;DHT22;39101;53.478;6.158;2022-11-09T13:25:53;11.80;99.90
51500;DHT22;39101;53.478;6.158;2022-11-09T13:30:58;11.60;99.90
51500;DHT22;39101;53.478;6.158;2022-11-09T13:33:32;11.70;99.90
51500;DHT22;39101;53.478;6.158;2022-11-09T13:38:27;11.60;99.90
51500;DHT22;39101;53.478;6.158;2022-11-09T13:45:58;11.70;99.90
51500;DHT22;39101;53.478;6.158;2022-11-09T13:51:05;11.80;99.90
51500;DHT22;39101;53.478;6.158;2022-11-09T13:56:37;11.80;99.90
51500;DHT22;39101;53.478;6.158;2022-11-09T13:59:27;11.90;99.90
51500;DHT22;39101;53.478;6.158;2022-11-09T14:01:55;11.90;99.90
51500;DHT22;39101;53.478;6.158;2022-11-09T14:06:49;11.80;99.90
51500;DHT22;39101;53.478;6.158;2022-11-09T14:09:19;11.40;99.90
51500;DHT22;39101;53.478;6.158;2022-11-09T14:17:22;10.70;99.90
51500;DHT22;39101;53.478;6.158;2022-11-09T14:22:45;10.50;99.90
51500;DHT22;39101;53.478;6.158;2022-11-09T14:25:15;10.60;99.90
51500;DHT22;39101;53.478;6.158;2022-11-09T14:27:52;10.60;99.90
51500;DHT22;39101;53.478;6.158;2022-11-09T14:30:29;10.60;99.90
51500;DHT22;39101;53.478;6.158;2022-11-09T14:32:57;10.90;99.90
51500;DHT22;39101;53.478;6.158;2022-11-09T14:35:34;11.00;99.90
51500;DHT22;39101;53.478;6.158;2022-11-09T14:38:12;11.20;99.90
51500;DHT22;39101;53.478;6.158;2022-11-09T14:40:43;11.10;99.90
51500;DHT22;39101;53.478;6.158;2022-11-09T14:43:29;11.30;99.90
51500;DHT22;39101;53.478;6.158;2022-11-09T14:46:03;11.20;99.90
51500;DHT22;39101;53.478;6.158;2022-11-09T14:48:31;11.20;99.90
51500;DHT22;39101;53.478;6.158;2022-11-09T14:51:00;11.30;99.90
51500;DHT22;39101;53.478;6.158;2022-11-09T14:53:32;11.30;99.90
51500;DHT22;39101;53.478;6.158;2022-11-09T14:56:02;11.20;99.90
51500;DHT22;39101;53.478;6.158;2022-11-09T14:58:30;11.40;99.90
51500;DHT22;39101;53.478;6.158;2022-11-09T15:03:41;11.40;99.90
51500;DHT22;39101;53.478;6.158;2022-11-09T15:06:11;11.40;99.90
51500;DHT22;39101;53.478;6.158;2022-11-09T15:08:38;11.50;99.90
51500;DHT22;39101;53.478;6.158;2022-11-09T15:11:12;11.50;99.90
51500;DHT22;39101;53.478;6.158;2022-11-09T15:13:39;11.40;99.90
51500;DHT22;39101;53.478;6.158;2022-11-09T15:16:06;11.40;99.90
51500;DHT22;39101;53.478;6.158;2022-11-09T15:18:34;11.40;99.90
51500;DHT22;39101;53.478;6.158;2022-11-09T15:21:33;11.40;99.90
51500;DHT22;39101;53.478;6.158;2022-11-09T15:26:37;11.40;99.90
51500;DHT22;39101;53.478;6.158;2022-11-09T15:32:11;11.40;99.90
51500;DHT22;39101;53.478;6.158;2022-11-09T15:34:40;11.30;99.90
51500;DHT22;39101;53.478;6.158;2022-11-09T15:39:47;11.30;99.90
51500;DHT22;39101;53.478;6.158;2022-11-09T15:42:13;11.30;99.90
51500;DHT22;39101;53.478;6.158;2022-11-09T15:44:38;11.30;99.90
51500;DHT22;39101;53.478;6.158;2022-11-09T15:47:32;11.20;99.90
51500;DHT22;39101;53.478;6.158;2022-11-09T15:50:00;11.20;99.90
51500;DHT22;39101;53.478;6.158;2022-11-09T15:52:27;11.20;99.90
51500;DHT22;39101;53.478;6.158;2022-11-09T15:54:53;11.20;99.90
51500;DHT22;39101;53.478;6.158;2022-11-09T15:57:19;11.20;99.90
51500;DHT22;39101;53.478;6.158;2022-11-09T15:59:47;11.10;99.90
51500;DHT22;39101;53.478;6.158;2022-11-09T16:02:13;11.00;99.90
51500;DHT22;39101;53.478;6.158;2022-11-09T16:04:39;11.00;99.90
51500;DHT22;39101;53.478;6.158;2022-11-09T16:07:05;11.10;99.90
51500;DHT22;39101;53.478;6.158;2022-11-09T16:09:31;11.10;99.90
51500;DHT22;39101;53.478;6.158;2022-11-09T16:11:57;11.10;99.90
51500;DHT22;39101;53.478;6.158;2022-11-09T16:14:23;11.00;99.90
51500;DHT22;39101;53.478;6.158;2022-11-09T16:16:49;11.10;99.90
51500;DHT22;39101;53.478;6.158;2022-11-09T16:19:15;11.10;99.90
51500;DHT22;39101;53.478;6.158;2022-11-09T16:21:41;11.00;99.90
51500;DHT22;39101;53.478;6.158;2022-11-09T16:24:07;11.00;99.90
51500;DHT22;39101;53.478;6.158;2022-11-09T16:26:32;11.10;99.90
51500;DHT22;39101;53.478;6.158;2022-11-09T16:28:58;11.00;99.90
51500;DHT22;39101;53.478;6.158;2022-11-09T16:31:24;11.00;99.90
51500;DHT22;39101;53.478;6.158;2022-11-09T16:33:50;11.00;99.90
51500;DHT22;39101;53.478;6.158;2022-11-09T16:36:23;10.90;99.90
51500;DHT22;39101;53.478;6.158;2022-11-09T16:38:52;10.90;99.90
51500;DHT22;39101;53.478;6.158;2022-11-09T16:41:18;10.90;99.90
51500;DHT22;39101;53.478;6.158;2022-11-09T16:43:46;10.90;99.90
51500;DHT22;39101;53.478;6.158;2022-11-09T16:46:18;10.90;99.90
51500;DHT22;39101;53.478;6.158;2022-11-09T16:48:45;10.90;99.90
51500;DHT22;39101;53.478;6.158;2022-11-09T16:51:11;11.00;99.90
51500;DHT22;39101;53.478;6.158;2022-11-09T16:53:36;11.10;99.90
51500;DHT22;39101;53.478;6.158;2022-11-09T16:56:02;11.10;99.90
51500;DHT22;39101;53.478;6.158;2022-11-09T16:58:28;11.00;99.90
51500;DHT22;39101;53.478;6.158;2022-11-09T17:00:53;11.00;99.90
51500;DHT22;39101;53.478;6.158;2022-11-09T17:03:19;11.10;99.90
51500;DHT22;39101;53.478;6.158;2022-11-09T17:05:45;11.00;99.90
51500;DHT22;39101;53.478;6.158;2022-11-09T17:08:11;11.00;99.90
51500;DHT22;39101;53.478;6.158;2022-11-09T17:10:42;11.00;99.90
51500;DHT22;39101;53.478;6.158;2022-11-09T17:13:08;11.10;99.90
51500;DHT22;39101;53.478;6.158;2022-11-09T17:15:39;11.20;99.90
51500;DHT22;39101;53.478;6.158;2022-11-09T17:18:05;11.20;99.90
51500;DHT22;39101;53.478;6.158;2022-11-09T17:20:33;11.20;99.90
51500;DHT22;39101;53.478;6.158;2022-11-09T17:22:59;11.20;99.90
51500;DHT22;39101;53.478;6.158;2022-11-09T17:25:24;11.10;99.90
51500;DHT22;39101;53.478;6.158;2022-11-09T17:27:50;11.10;99.90
51500;DHT22;39101;53.478;6.158;2022-11-09T17:30:16;11.10;99.90
51500;DHT22;39101;53.478;6.158;2022-11-09T17:32:42;11.10;99.90
51500;DHT22;39101;53.478;6.158;2022-11-09T17:35:08;11.10;99.90
51500;DHT22;39101;53.478;6.158;2022-11-09T17:37:33;11.10;99.90
51500;DHT22;39101;53.478;6.158;2022-11-09T17:39:59;11.00;99.90
51500;DHT22;39101;53.478;6.158;2022-11-09T17:42:24;11.00;99.90
51500;DHT22;39101;53.478;6.158;2022-11-09T17:44:50;11.00;99.90